createdAt,value
2018-05-15T00:00:48.046Z,16.00
2018-05-15T00:03:13.975Z,16.00
2018-05-15T00:05:40.617Z,16.00
2018-05-15T00:08:07.280Z,16.00
2018-05-15T00:10:33.159Z,16.00
2018-05-15T00:12:59.033Z,16.00
2018-05-15T00:15:24.942Z,15.90
2018-05-15T00:17:50.823Z,15.90
2018-05-15T00:20:16.755Z,15.90
2018-05-15T00:22:43.384Z,15.70
2018-05-15T00:25:09.260Z,15.70
2018-05-15T00:27:35.710Z,15.60
2018-05-15T00:30:01.614Z,15.50
2018-05-15T00:32:27.516Z,15.50
2018-05-15T00:34:53.413Z,15.50
2018-05-15T00:37:20.032Z,15.60
2018-05-15T00:39:45.931Z,15.50
2018-05-15T00:42:11.825Z,15.50
2018-05-15T00:44:37.735Z,15.60
2018-05-15T00:47:03.634Z,15.60
2018-05-15T00:49:30.269Z,15.60
2018-05-15T00:51:56.175Z,15.60
2018-05-15T00:54:22.047Z,15.60
2018-05-15T00:56:47.940Z,15.60
2018-05-15T00:59:13.840Z,15.50
2018-05-15T01:01:39.732Z,15.50
2018-05-15T01:04:05.653Z,15.50
2018-05-15T01:06:31.524Z,15.50
2018-05-15T01:08:57.431Z,15.40
2018-05-15T01:11:24.054Z,15.30
2018-05-15T01:13:49.984Z,15.20
2018-05-15T01:16:16.610Z,15.20
2018-05-15T01:18:42.487Z,15.10
2018-05-15T01:21:08.379Z,15.10
2018-05-15T01:23:34.272Z,15.10
2018-05-15T01:26:00.177Z,15.10
2018-05-15T01:28:26.101Z,15.10
2018-05-15T01:30:52.002Z,15.10
2018-05-15T01:33:17.909Z,15.20
2018-05-15T01:35:43.811Z,15.20
2018-05-15T01:38:10.114Z,15.20
2018-05-15T01:40:36.749Z,15.00
2018-05-15T01:43:03.376Z,14.90
2018-05-15T01:45:29.318Z,14.90
2018-05-15T01:47:55.161Z,14.80
2018-05-15T01:50:21.496Z,14.70
2018-05-15T01:52:47.383Z,14.70
2018-05-15T01:55:14.048Z,14.80
2018-05-15T01:57:39.949Z,14.80
2018-05-15T02:00:06.568Z,14.80
2018-05-15T02:02:35.909Z,14.80
2018-05-15T02:05:01.838Z,14.90
2018-05-15T02:07:27.755Z,14.80
2018-05-15T02:09:53.655Z,14.80
2018-05-15T02:12:19.559Z,14.80
2018-05-15T02:14:46.642Z,15.00
2018-05-15T02:17:12.520Z,14.90
2018-05-15T02:19:38.419Z,15.10
2018-05-15T02:22:04.331Z,15.10
2018-05-15T02:24:30.214Z,15.10
2018-05-15T02:26:56.117Z,15.20
2018-05-15T02:29:22.734Z,15.10
2018-05-15T02:31:48.646Z,15.10
2018-05-15T02:34:14.569Z,15.10
2018-05-15T02:36:40.482Z,15.00
2018-05-15T02:39:06.386Z,15.00
2018-05-15T02:41:32.312Z,15.00
2018-05-15T02:43:58.219Z,14.90
2018-05-15T02:46:24.150Z,14.80
2018-05-15T02:48:50.148Z,14.80
2018-05-15T02:51:15.951Z,14.80
2018-05-15T02:53:42.609Z,14.70
2018-05-15T02:56:08.491Z,14.70
2018-05-15T02:58:35.126Z,14.60
2018-05-15T03:01:01.788Z,14.60
2018-05-15T03:03:27.682Z,14.60
2018-05-15T03:05:53.603Z,14.60
2018-05-15T03:08:19.497Z,14.70
2018-05-15T03:10:45.388Z,14.60
2018-05-15T03:13:11.273Z,14.60
2018-05-15T03:15:37.930Z,14.70
2018-05-15T03:18:03.821Z,14.70
2018-05-15T03:20:29.746Z,14.70
2018-05-15T03:22:55.628Z,14.70
2018-05-15T03:25:21.515Z,14.70
2018-05-15T03:27:47.424Z,14.60
2018-05-15T03:30:14.048Z,14.80
2018-05-15T03:32:40.709Z,14.70
2018-05-15T03:35:06.602Z,14.70
2018-05-15T03:37:32.478Z,14.70
2018-05-15T03:39:58.381Z,14.70
2018-05-15T03:42:24.302Z,14.80
2018-05-15T03:44:50.208Z,14.70
2018-05-15T03:47:16.832Z,14.80
2018-05-15T03:49:43.452Z,14.90
2018-05-15T03:52:09.355Z,14.80
2018-05-15T03:54:35.260Z,14.90
2018-05-15T03:57:01.173Z,14.90
2018-05-15T03:59:27.048Z,14.90
2018-05-15T04:02:06.158Z,14.90
2018-05-15T04:04:44.555Z,14.90
2018-05-15T04:07:23.097Z,15.00
2018-05-15T04:09:55.915Z,15.00
2018-05-15T04:12:21.801Z,15.00
2018-05-15T04:14:49.555Z,15.00
2018-05-15T04:17:15.438Z,15.00
2018-05-15T04:19:41.747Z,15.00
2018-05-15T04:22:08.385Z,15.20
2018-05-15T04:24:34.293Z,15.10
2018-05-15T04:27:00.928Z,15.10
2018-05-15T04:29:27.573Z,15.10
2018-05-15T04:31:54.213Z,15.20
2018-05-15T04:34:20.112Z,15.20
2018-05-15T04:36:46.739Z,15.40
2018-05-15T04:39:12.642Z,15.40
2018-05-15T04:41:38.596Z,15.40
2018-05-15T04:44:05.520Z,15.50
2018-05-15T04:46:32.188Z,15.50
2018-05-15T04:48:58.825Z,15.60
2018-05-15T04:51:25.466Z,15.60
2018-05-15T04:53:52.109Z,15.70
2018-05-15T04:56:18.755Z,16.00
2018-05-15T04:58:44.644Z,16.00
2018-05-15T05:01:10.532Z,16.80
2018-05-15T05:03:36.477Z,17.30
2018-05-15T05:06:02.359Z,17.30
2018-05-15T05:08:28.283Z,17.60
2018-05-15T05:10:54.162Z,18.10
2018-05-15T05:13:20.786Z,18.90
2018-05-15T05:15:47.396Z,18.80
2018-05-15T05:18:13.300Z,18.80
2018-05-15T05:20:39.195Z,18.30
2018-05-15T05:23:05.081Z,18.10
2018-05-15T05:25:30.974Z,17.90
2018-05-15T05:27:56.867Z,18.00
2018-05-15T05:30:22.739Z,18.10
2018-05-15T05:32:48.638Z,18.30
2018-05-15T05:35:14.529Z,18.30
2018-05-15T05:37:40.422Z,18.20
2018-05-15T05:40:06.347Z,18.30
2018-05-15T05:42:32.265Z,18.10
2018-05-15T05:44:58.171Z,18.00
2018-05-15T05:47:24.822Z,18.30
2018-05-15T05:49:51.447Z,18.30
2018-05-15T05:52:18.104Z,18.30
2018-05-15T05:54:44.011Z,18.30
2018-05-15T05:57:10.658Z,18.70
2018-05-15T05:59:37.297Z,18.90
2018-05-15T06:02:03.921Z,19.10
2018-05-15T06:04:30.547Z,19.30
2018-05-15T06:06:56.436Z,19.30
2018-05-15T06:09:22.350Z,19.60
2018-05-15T06:11:48.304Z,20.00
2018-05-15T06:14:14.204Z,20.10
2018-05-15T06:16:40.101Z,20.40
2018-05-15T06:19:05.995Z,20.70
2018-05-15T06:21:32.637Z,21.80
2018-05-15T06:23:58.533Z,21.80
2018-05-15T06:26:24.422Z,22.10
2018-05-15T06:28:50.327Z,22.30
2018-05-15T06:31:16.222Z,22.60
2018-05-15T06:33:42.136Z,22.90
2018-05-15T06:36:08.752Z,23.30
2018-05-15T06:38:34.669Z,23.30
2018-05-15T06:41:00.568Z,23.70
2018-05-15T06:43:26.471Z,24.00
2018-05-15T06:45:52.472Z,24.40
2018-05-15T06:48:19.032Z,24.40
2018-05-15T06:50:45.542Z,25.10
2018-05-15T06:53:11.462Z,25.20
2018-05-15T06:55:37.795Z,25.50
2018-05-15T06:58:03.698Z,25.10
2018-05-15T07:00:30.357Z,25.20
2018-05-15T07:02:56.269Z,25.20
2018-05-15T07:05:22.166Z,25.00
2018-05-15T07:07:48.874Z,24.50
2018-05-15T07:10:14.766Z,24.40
2018-05-15T07:12:40.665Z,24.80
2018-05-15T07:15:06.660Z,24.80
2018-05-15T07:17:32.926Z,24.40
2018-05-15T07:19:58.804Z,24.60
2018-05-15T07:22:24.714Z,25.00
2018-05-15T07:24:50.600Z,25.80
2018-05-15T07:27:16.536Z,26.00
2018-05-15T07:29:42.425Z,25.80
2018-05-15T07:32:08.310Z,25.00
2018-05-15T07:34:34.200Z,25.10
2018-05-15T07:37:00.083Z,25.60
2018-05-15T07:39:25.990Z,25.90
2018-05-15T07:41:53.037Z,26.00
2018-05-15T07:44:18.955Z,26.00
2018-05-15T07:46:45.610Z,26.70
2018-05-15T07:49:11.501Z,26.70
2018-05-15T07:51:37.435Z,27.20
2018-05-15T07:54:04.076Z,28.40
2018-05-15T07:56:30.709Z,29.00
2018-05-15T07:58:57.405Z,29.50
2018-05-15T08:01:23.292Z,29.50
2018-05-15T08:03:49.211Z,29.90
2018-05-15T08:06:15.096Z,29.80
2018-05-15T08:08:40.991Z,29.40
2018-05-15T08:11:17.881Z,29.70
2018-05-15T08:13:43.792Z,29.60
2018-05-15T08:16:09.697Z,29.70
2018-05-15T08:18:35.598Z,29.80
2018-05-15T08:21:01.488Z,29.50
2018-05-15T08:23:28.158Z,29.30
2018-05-15T08:25:54.044Z,29.40
2018-05-15T08:28:20.687Z,30.20
2018-05-15T08:30:47.370Z,29.80
2018-05-15T08:33:13.984Z,29.30
2018-05-15T08:35:39.910Z,29.10
2018-05-15T08:38:05.805Z,29.20
2018-05-15T08:40:32.452Z,29.70
2018-05-15T08:42:59.100Z,30.30
2018-05-15T08:45:25.065Z,30.20
2018-05-15T08:47:51.661Z,30.80
2018-05-15T08:50:17.556Z,30.80
2018-05-15T08:52:44.214Z,30.20
2018-05-15T08:55:10.121Z,30.20
2018-05-15T08:57:36.757Z,30.30
2018-05-15T09:00:03.394Z,30.60
2018-05-15T09:02:30.035Z,31.20
2018-05-15T09:04:56.698Z,31.00
2018-05-15T09:07:22.579Z,31.00
2018-05-15T09:09:48.464Z,30.90
2018-05-15T09:12:14.385Z,31.40
2018-05-15T09:14:40.282Z,31.80
2018-05-15T09:17:06.208Z,31.80
2018-05-15T09:19:32.088Z,31.80
2018-05-15T09:21:58.764Z,31.40
2018-05-15T09:24:28.225Z,31.30
2018-05-15T09:26:54.856Z,27.70
2018-05-15T09:29:20.769Z,27.60
2018-05-15T09:31:46.698Z,27.00
2018-05-15T09:34:12.606Z,26.30
2018-05-15T09:36:38.528Z,26.60
2018-05-15T09:39:04.476Z,26.40
2018-05-15T09:41:31.185Z,28.40
2018-05-15T09:43:57.041Z,28.40
2018-05-15T09:46:23.481Z,27.30
2018-05-15T09:48:50.253Z,26.90
2018-05-15T09:51:16.259Z,27.50
2018-05-15T09:53:42.171Z,28.80
2018-05-15T09:56:08.082Z,30.40
2018-05-15T09:58:33.997Z,29.30
2018-05-15T10:00:59.902Z,28.00
2018-05-15T10:03:26.535Z,26.60
2018-05-15T10:05:52.443Z,26.60
2018-05-15T10:08:18.315Z,26.40
2018-05-15T10:10:44.209Z,26.20
2018-05-15T10:16:02.725Z,26.90
2018-05-15T10:18:28.963Z,27.00
2018-05-15T10:20:55.007Z,26.50
2018-05-15T10:23:20.908Z,27.30
2018-05-15T10:25:46.939Z,27.40
2018-05-15T10:28:12.867Z,27.30
2018-05-15T10:30:38.783Z,28.10
2018-05-15T10:33:04.668Z,28.60
2018-05-15T10:35:30.555Z,29.10
2018-05-15T10:37:57.229Z,29.00
2018-05-15T10:40:23.162Z,29.00
2018-05-15T10:42:49.058Z,29.60
2018-05-15T10:45:14.989Z,28.90
2018-05-15T10:47:40.911Z,28.00
2018-05-15T10:50:06.821Z,28.60
2018-05-15T10:52:32.725Z,28.30
2018-05-15T10:54:59.363Z,28.40
2018-05-15T10:57:26.039Z,28.40
2018-05-15T10:59:51.944Z,28.40
2018-05-15T11:02:17.877Z,28.20
2018-05-15T11:04:43.797Z,27.40
2018-05-15T11:07:09.698Z,27.70
2018-05-15T11:09:35.630Z,27.90
2018-05-15T11:12:01.533Z,27.80
2018-05-15T11:14:27.455Z,27.30
2018-05-15T11:16:53.368Z,27.70
2018-05-15T11:19:32.629Z,27.60
2018-05-15T11:22:11.190Z,27.60
2018-05-15T11:24:43.173Z,27.80
2018-05-15T11:27:09.526Z,27.70
2018-05-15T11:29:35.436Z,26.70
2018-05-15T11:32:02.110Z,27.30
2018-05-15T11:34:28.041Z,27.30
2018-05-15T11:36:53.929Z,27.80
2018-05-15T11:39:19.840Z,27.90
2018-05-15T11:41:45.826Z,28.10
2018-05-15T11:44:11.697Z,27.90
2018-05-15T11:46:37.644Z,27.10
2018-05-15T11:49:04.657Z,27.30
2018-05-15T11:51:30.451Z,27.40
2018-05-15T11:53:55.482Z,26.80
2018-05-15T11:56:21.423Z,26.70
2018-05-15T11:58:48.047Z,26.80
2018-05-15T12:01:13.955Z,26.80
2018-05-15T12:03:39.938Z,26.90
2018-05-15T12:06:06.502Z,27.00
2018-05-15T12:08:33.136Z,27.40
2018-05-15T12:10:59.788Z,26.60
2018-05-15T12:13:25.686Z,26.60
2018-05-15T12:15:52.389Z,26.30
2018-05-15T12:18:18.325Z,26.30
2018-05-15T12:20:44.207Z,26.90
2018-05-15T12:23:10.113Z,27.20
2018-05-15T12:25:36.232Z,27.00
2018-05-15T12:28:02.214Z,27.00
2018-05-15T12:30:28.083Z,26.60
2018-05-15T12:32:53.997Z,26.60
2018-05-15T12:35:19.924Z,26.30
2018-05-15T12:37:45.864Z,26.30
2018-05-15T12:40:11.784Z,26.50
2018-05-15T12:42:37.681Z,26.30
2018-05-15T12:45:03.642Z,26.00
2018-05-15T12:47:29.585Z,26.20
2018-05-15T12:49:55.511Z,26.20
2018-05-15T12:52:21.399Z,26.00
2018-05-15T12:54:47.316Z,26.30
2018-05-15T12:57:13.221Z,26.10
2018-05-15T12:59:39.137Z,26.00
2018-05-15T13:02:05.026Z,26.00
2018-05-15T13:04:31.651Z,25.60
2018-05-15T13:06:57.603Z,25.60
2018-05-15T13:09:23.493Z,25.30
2018-05-15T13:11:49.429Z,25.30
2018-05-15T13:14:16.118Z,25.40
2018-05-15T13:16:42.421Z,25.40
2018-05-15T13:19:08.340Z,25.40
2018-05-15T13:21:34.357Z,25.20
2018-05-15T13:24:00.262Z,23.30
2018-05-15T13:26:26.885Z,22.70
2018-05-15T13:28:52.791Z,22.70
2018-05-15T13:31:18.695Z,22.50
2018-05-15T13:33:44.595Z,22.30
2018-05-15T13:36:10.514Z,21.90
2018-05-15T13:38:36.428Z,22.00
2018-05-15T13:41:02.402Z,21.70
2018-05-15T13:43:28.990Z,21.80
2018-05-15T13:45:54.888Z,21.80
2018-05-15T13:48:21.524Z,21.60
2018-05-15T13:50:48.166Z,21.80
2018-05-15T13:53:14.805Z,21.80
2018-05-15T13:55:41.447Z,21.60
2018-05-15T13:58:07.344Z,21.60
2018-05-15T14:00:34.018Z,21.60
2018-05-15T14:02:59.905Z,21.60
2018-05-15T14:05:26.534Z,21.30
2018-05-15T14:07:52.437Z,21.20
2018-05-15T14:10:18.344Z,21.10
2018-05-15T14:12:44.301Z,21.10
2018-05-15T14:15:10.190Z,20.80
2018-05-15T14:17:36.089Z,20.60
2018-05-15T14:20:02.169Z,20.50
2018-05-15T14:22:28.848Z,20.10
2018-05-15T14:24:54.768Z,20.10
2018-05-15T14:27:20.717Z,19.90
2018-05-15T14:29:46.622Z,19.70
2018-05-15T14:32:12.526Z,19.30
2018-05-15T14:34:38.415Z,18.90
2018-05-15T14:37:05.072Z,17.90
2018-05-15T14:39:30.973Z,17.90
2018-05-15T14:42:10.241Z,17.10
2018-05-15T14:44:36.122Z,17.10
2018-05-15T14:47:02.747Z,16.10
2018-05-15T14:49:28.665Z,16.00
2018-05-15T14:51:54.556Z,15.90
2018-05-15T14:54:20.455Z,15.90
2018-05-15T14:56:46.854Z,15.30
2018-05-15T14:59:13.492Z,14.30
2018-05-15T15:01:39.397Z,14.20
2018-05-15T15:04:05.321Z,13.90
2018-05-15T15:06:31.664Z,13.70
2018-05-15T15:08:58.298Z,13.40
2018-05-15T15:11:24.944Z,13.40
2018-05-15T15:13:51.649Z,13.40
2018-05-15T15:16:17.528Z,13.40
2018-05-15T15:18:50.425Z,13.40
2018-05-15T15:21:16.317Z,13.40
2018-05-15T15:23:43.006Z,13.40
2018-05-15T15:26:10.426Z,13.40
2018-05-15T15:28:36.320Z,13.50
2018-05-15T15:31:04.210Z,13.40
2018-05-15T15:33:30.705Z,13.40
2018-05-15T15:35:56.608Z,13.30
2018-05-15T15:38:22.854Z,13.30
2018-05-15T15:40:50.226Z,13.20
2018-05-15T15:43:18.106Z,13.20
2018-05-15T15:45:44.084Z,13.20
2018-05-15T15:48:09.997Z,13.20
2018-05-15T15:50:35.973Z,13.30
2018-05-15T15:53:02.657Z,13.30
2018-05-15T15:55:28.554Z,13.30
2018-05-15T15:57:54.657Z,13.40
2018-05-15T16:00:20.561Z,13.40
2018-05-15T16:02:47.232Z,13.50
2018-05-15T16:05:13.125Z,13.40
2018-05-15T16:07:39.768Z,13.60
2018-05-15T16:10:06.511Z,13.70
2018-05-15T16:12:33.062Z,13.60
2018-05-15T16:14:58.953Z,13.50
2018-05-15T16:17:25.580Z,13.60
2018-05-15T16:19:51.607Z,13.60
2018-05-15T16:22:17.492Z,13.70
2018-05-15T16:24:43.428Z,13.80
2018-05-15T16:27:09.335Z,13.90
2018-05-15T16:29:35.237Z,13.90
2018-05-15T16:32:01.147Z,14.00
2018-05-15T16:34:27.041Z,14.10
2018-05-15T16:36:53.671Z,14.30
2018-05-15T16:39:20.336Z,14.40
2018-05-15T16:41:46.245Z,14.30
2018-05-15T16:44:12.897Z,14.50
2018-05-15T16:46:38.837Z,14.50
2018-05-15T16:49:04.734Z,14.50
2018-05-15T16:51:30.629Z,14.60
2018-05-15T16:53:57.265Z,14.70
2018-05-15T16:56:23.184Z,14.60
2018-05-15T16:58:49.101Z,14.60
2018-05-15T17:01:15.004Z,14.70
2018-05-15T17:03:40.896Z,14.50
2018-05-15T17:06:06.801Z,14.40
2018-05-15T17:08:32.728Z,14.20
2018-05-15T17:10:58.626Z,14.10
2018-05-15T17:13:25.282Z,13.90
2018-05-15T17:15:51.184Z,13.90
2018-05-15T17:18:17.833Z,13.60
2018-05-15T17:20:43.781Z,13.50
2018-05-15T17:23:09.710Z,13.50
2018-05-15T17:25:35.614Z,13.40
2018-05-15T17:28:01.569Z,13.50
2018-05-15T17:30:27.461Z,13.50
2018-05-15T17:32:53.395Z,13.50
2018-05-15T17:35:19.293Z,13.50
2018-05-15T17:37:45.219Z,13.50
2018-05-15T17:40:11.179Z,13.60
2018-05-15T17:42:37.100Z,13.60
2018-05-15T17:45:03.017Z,13.70
2018-05-15T17:47:28.974Z,13.80
2018-05-15T17:49:54.824Z,13.80
2018-05-15T17:52:20.740Z,13.80
2018-05-15T17:54:46.659Z,13.80
2018-05-15T17:57:12.608Z,13.80
2018-05-15T17:59:38.512Z,13.80
2018-05-15T18:02:04.425Z,13.80
2018-05-15T18:04:30.344Z,13.90
2018-05-15T18:06:56.272Z,13.80
2018-05-15T18:09:22.228Z,13.90
2018-05-15T18:11:48.164Z,14.00
2018-05-15T18:14:14.804Z,14.00
2018-05-15T18:16:41.463Z,13.90
2018-05-15T18:19:08.081Z,13.80
2018-05-15T18:21:34.016Z,13.80
2018-05-15T18:24:00.685Z,13.80
2018-05-15T18:26:26.581Z,13.80
2018-05-15T18:28:53.220Z,13.80
2018-05-15T18:31:19.877Z,13.80
2018-05-15T18:33:45.796Z,13.70
2018-05-15T18:36:11.721Z,13.70
2018-05-15T18:38:37.625Z,13.60
2018-05-15T18:41:03.513Z,13.60
2018-05-15T18:43:29.412Z,13.60
2018-05-15T18:45:55.329Z,13.60
2018-05-15T18:48:21.343Z,13.60
2018-05-15T18:50:47.284Z,13.60
2018-05-15T18:53:13.168Z,13.60
2018-05-15T18:55:39.056Z,13.50
2018-05-15T18:58:05.761Z,13.50
2018-05-15T19:00:31.607Z,13.50
2018-05-15T19:02:58.274Z,13.60
2018-05-15T19:05:24.176Z,13.50
2018-05-15T19:07:50.813Z,13.50
2018-05-15T19:10:17.477Z,13.50
2018-05-15T19:12:44.124Z,13.50
2018-05-15T19:15:10.953Z,13.40
2018-05-15T19:17:36.857Z,13.40
2018-05-15T19:20:03.550Z,13.40
2018-05-15T19:22:29.531Z,13.30
2018-05-15T19:24:55.434Z,13.30
2018-05-15T19:27:22.339Z,13.30
2018-05-15T19:29:48.253Z,13.20
2018-05-15T19:32:16.169Z,13.20
2018-05-15T19:34:49.041Z,13.20
2018-05-15T19:37:14.978Z,13.20
2018-05-15T19:39:43.638Z,13.20
2018-05-15T19:42:09.457Z,13.20
2018-05-15T19:44:35.365Z,13.20
2018-05-15T19:47:01.272Z,13.20
2018-05-15T19:49:27.226Z,13.20
2018-05-15T19:51:53.249Z,13.20
2018-05-15T19:54:19.185Z,13.10
2018-05-15T19:56:45.817Z,13.10
2018-05-15T19:59:12.466Z,13.00
2018-05-15T20:01:39.133Z,13.00
2018-05-15T20:04:05.073Z,13.00
2018-05-15T20:06:35.990Z,13.00
2018-05-15T20:09:02.057Z,13.00
2018-05-15T20:11:27.918Z,13.00
2018-05-15T20:13:53.895Z,13.00
2018-05-15T20:16:19.922Z,12.90
2018-05-15T20:18:45.889Z,13.00
2018-05-15T20:21:11.805Z,12.90
2018-05-15T20:23:37.765Z,12.90
2018-05-15T20:26:03.653Z,13.00
2018-05-15T20:28:29.579Z,13.00
2018-05-15T20:30:55.703Z,13.00
2018-05-15T20:33:21.589Z,12.90
2018-05-15T20:35:48.239Z,12.90
2018-05-15T20:38:14.909Z,12.90
2018-05-15T20:40:40.817Z,12.80
2018-05-15T20:43:06.975Z,12.90
2018-05-15T20:45:32.876Z,12.90
2018-05-15T20:47:59.013Z,12.90
2018-05-15T20:50:24.905Z,13.00
2018-05-15T20:52:50.793Z,13.00
2018-05-15T20:55:16.707Z,12.90
2018-05-15T20:57:42.623Z,13.00
2018-05-15T21:00:09.286Z,12.90
2018-05-15T21:02:35.905Z,13.00
2018-05-15T21:05:01.949Z,12.90
2018-05-15T21:07:28.595Z,12.90
2018-05-15T21:09:55.230Z,13.00
2018-05-15T21:12:21.184Z,13.00
2018-05-15T21:14:47.556Z,13.00
2018-05-15T21:17:13.444Z,13.00
2018-05-15T21:19:39.374Z,13.00
2018-05-15T21:22:05.253Z,13.00
2018-05-15T21:24:31.236Z,13.00
2018-05-15T21:26:57.181Z,13.00
2018-05-15T21:29:24.042Z,13.00
2018-05-15T21:31:50.125Z,13.00
2018-05-15T21:34:16.085Z,13.00
2018-05-15T21:36:42.074Z,12.90
2018-05-15T21:39:08.336Z,13.00
2018-05-15T21:41:35.588Z,13.00
2018-05-15T21:44:01.672Z,13.00
2018-05-15T21:46:27.860Z,13.00
2018-05-15T21:48:54.079Z,13.00
2018-05-15T21:51:20.097Z,13.10
2018-05-15T21:53:45.988Z,13.10
2018-05-15T21:56:11.945Z,13.10
2018-05-15T21:58:37.840Z,13.00
2018-05-15T22:01:04.476Z,13.00
2018-05-15T22:03:31.155Z,13.00
2018-05-15T22:05:57.066Z,12.90
2018-05-15T22:08:23.065Z,13.00
2018-05-15T22:14:02.830Z,13.00
2018-05-15T22:16:42.039Z,12.90
2018-05-15T22:19:20.429Z,12.90
2018-05-15T22:21:58.828Z,12.90
2018-05-15T22:24:24.883Z,12.90
2018-05-15T22:26:50.943Z,12.90
2018-05-15T22:29:17.598Z,12.90
2018-05-15T22:31:43.485Z,12.90
2018-05-15T22:34:10.159Z,12.80
2018-05-15T22:36:36.062Z,12.80
2018-05-15T22:39:02.684Z,12.80
2018-05-15T22:41:29.385Z,12.80
2018-05-15T22:43:55.253Z,12.80
2018-05-15T22:46:21.896Z,12.80
2018-05-15T22:48:48.561Z,12.80
2018-05-15T22:51:14.483Z,12.70
2018-05-15T22:53:40.432Z,12.70
2018-05-15T22:56:06.329Z,12.70
2018-05-15T22:58:32.225Z,12.70
2018-05-15T23:00:58.122Z,12.70
2018-05-15T23:03:24.897Z,12.70
2018-05-15T23:20:11.216Z,12.50
2018-05-15T23:22:41.175Z,12.60
2018-05-15T23:25:07.833Z,12.70
2018-05-15T23:27:33.743Z,12.60
2018-05-15T23:30:00.385Z,12.70
2018-05-15T23:32:35.817Z,12.60
2018-05-15T23:35:01.864Z,12.70
2018-05-15T23:37:27.910Z,12.70
2018-05-15T23:39:53.854Z,12.70
2018-05-15T23:42:19.813Z,12.90
2018-05-15T23:44:45.776Z,12.80
2018-05-15T23:47:11.810Z,12.70
2018-05-15T23:49:37.783Z,12.70
2018-05-15T23:52:03.770Z,12.60
2018-05-15T23:54:29.711Z,12.60
2018-05-15T23:56:55.650Z,12.60
2018-05-15T23:59:21.601Z,12.70
